createdAt,value
2022-08-07T00:01:43.651Z,82.61
2022-08-07T00:04:24.786Z,81.83
2022-08-07T00:07:01.410Z,81.89
2022-08-07T00:09:35.833Z,82.94
2022-08-07T00:12:06.710Z,84.63
2022-08-07T00:14:44.223Z,87.14
2022-08-07T00:17:14.794Z,87.52
2022-08-07T00:20:01.561Z,88.67
2022-08-07T00:22:24.429Z,89.81
2022-08-07T00:24:59.984Z,92.62
2022-08-07T00:27:51.933Z,91.89
2022-08-07T00:30:26.423Z,89.51
2022-08-07T00:32:48.177Z,89.97
2022-08-07T00:35:23.846Z,91.88
2022-08-07T00:37:54.601Z,92.49
2022-08-07T00:40:39.859Z,95.51
2022-08-07T00:42:58.037Z,95.09
2022-08-07T00:45:28.954Z,94.62
2022-08-07T00:48:09.626Z,95.00
2022-08-07T00:50:46.256Z,95.42
2022-08-07T00:53:09.183Z,94.95
2022-08-07T00:56:03.325Z,97.06
2022-08-07T00:58:12.869Z,97.70
2022-08-07T01:00:53.823Z,100.00
2022-08-07T01:03:56.941Z,100.00
2022-08-07T01:05:59.763Z,99.24
2022-08-07T01:08:32.348Z,96.46
2022-08-07T01:12:05.005Z,98.48
2022-08-07T01:13:36.421Z,99.56
2022-08-07T01:16:11.809Z,100.00
2022-08-07T01:18:44.365Z,100.00
2022-08-07T01:21:22.756Z,100.00
2022-08-07T01:23:51.705Z,100.00
2022-08-07T01:26:26.081Z,100.00
2022-08-07T01:29:01.078Z,100.00
2022-08-07T01:31:41.532Z,100.00
2022-08-07T01:34:08.973Z,100.00
2022-08-07T01:36:57.575Z,100.00
2022-08-07T01:39:14.770Z,100.00
2022-08-07T01:42:07.403Z,100.00
2022-08-07T01:44:34.873Z,99.82
2022-08-07T01:48:16.632Z,98.73
2022-08-07T01:49:38.104Z,97.72
2022-08-07T01:52:13.285Z,96.99
2022-08-07T01:54:46.525Z,93.45
2022-08-07T01:57:28.939Z,90.52
2022-08-07T02:00:13.011Z,89.02
2022-08-07T02:03:12.483Z,85.27
2022-08-07T02:05:59.408Z,85.83
2022-08-07T02:08:24.585Z,87.15
2022-08-07T02:10:57.910Z,87.91
2022-08-07T02:13:57.697Z,89.19
2022-08-07T02:16:04.413Z,92.29
2022-08-07T02:18:46.830Z,93.03
2022-08-07T02:21:16.206Z,94.26
2022-08-07T02:23:49.315Z,98.67
2022-08-07T02:26:32.538Z,100.00
2022-08-07T02:28:50.929Z,100.00
2022-08-07T02:31:29.120Z,100.00
2022-08-07T02:34:03.241Z,100.00
2022-08-07T02:36:32.808Z,100.00
2022-08-07T02:39:00.731Z,100.00
2022-08-07T02:45:59.001Z,100.00
2022-08-07T02:48:28.943Z,100.00
2022-08-07T02:51:42.073Z,100.00
2022-08-07T02:57:48.932Z,100.00
2022-08-07T03:06:34.665Z,100.00
2022-08-07T03:15:47.905Z,100.00
2022-08-07T03:18:20.197Z,100.00
2022-08-07T03:20:52.540Z,100.00
2022-08-07T03:23:33.425Z,100.00
2022-08-07T03:25:58.395Z,100.00
2022-08-07T03:28:37.729Z,100.00
2022-08-07T03:31:43.308Z,100.00
2022-08-07T03:34:18.566Z,100.00
2022-08-07T03:36:51.886Z,100.00
2022-08-07T03:42:55.914Z,100.00
2022-08-07T03:45:30.719Z,100.00
2022-08-07T03:47:58.439Z,100.00
2022-08-07T03:50:32.211Z,100.00
2022-08-07T03:53:06.969Z,100.00
2022-08-07T03:56:04.433Z,100.00
2022-08-07T03:59:08.009Z,100.00
2022-08-07T04:01:07.485Z,100.00
2022-08-07T04:03:53.320Z,100.00
2022-08-07T04:06:37.830Z,100.00
2022-08-07T04:08:51.970Z,100.00
2022-08-07T04:12:27.984Z,100.00
2022-08-07T04:14:33.257Z,100.00
2022-08-07T04:16:58.216Z,100.00
2022-08-07T04:19:50.934Z,100.00
2022-08-07T04:22:07.801Z,100.00
2022-08-07T04:24:39.104Z,100.00
2022-08-07T04:27:20.615Z,100.00
2022-08-07T04:33:16.807Z,100.00
2022-08-07T04:35:54.454Z,100.00
2022-08-07T04:38:28.261Z,100.00
2022-08-07T04:41:06.200Z,100.00
2022-08-07T04:44:12.443Z,100.00
2022-08-07T04:47:10.274Z,100.00
2022-08-07T04:49:57.783Z,100.00
2022-08-07T04:52:51.281Z,100.00
2022-08-07T04:58:12.097Z,100.00
2022-08-07T05:01:33.852Z,100.00
2022-08-07T05:04:17.808Z,100.00
2022-08-07T05:24:11.313Z,100.00
2022-08-07T05:30:00.310Z,100.00
2022-08-07T05:32:39.077Z,100.00
2022-08-07T05:35:14.503Z,100.00
2022-08-07T05:37:46.841Z,100.00
2022-08-07T05:40:25.532Z,100.00
2022-08-07T05:43:00.910Z,100.00
2022-08-07T05:45:48.332Z,100.00
2022-08-07T05:48:18.224Z,100.00
2022-08-07T05:50:54.413Z,100.00
2022-08-07T05:54:12.900Z,100.00
2022-08-07T05:56:16.178Z,100.00
2022-08-07T05:58:58.878Z,100.00
2022-08-07T06:01:34.960Z,100.00
2022-08-07T06:04:06.606Z,100.00
2022-08-07T06:06:56.411Z,100.00
2022-08-07T06:12:31.809Z,100.00
2022-08-07T06:14:58.782Z,100.00
2022-08-07T06:17:53.658Z,100.00
2022-08-07T06:20:27.309Z,100.00
2022-08-07T06:23:24.677Z,100.00
2022-08-07T06:25:34.735Z,100.00
2022-08-07T06:28:16.630Z,100.00
2022-08-07T06:30:52.980Z,100.00
2022-08-07T06:33:19.737Z,100.00
2022-08-07T06:36:12.138Z,100.00
2022-08-07T06:38:22.345Z,99.13
2022-08-07T06:40:57.432Z,99.37
2022-08-07T06:43:27.523Z,100.00
2022-08-07T06:46:00.958Z,100.00
2022-08-07T06:48:29.835Z,100.00
2022-08-07T06:51:08.153Z,96.45
2022-08-07T06:55:29.876Z,97.67
2022-08-07T06:56:07.514Z,88.84
2022-08-07T07:00:12.870Z,92.29
2022-08-07T07:01:20.914Z,92.79
2022-08-07T07:03:57.238Z,84.10
2022-08-07T07:06:31.656Z,87.56
2022-08-07T07:09:24.209Z,86.92
2022-08-07T07:12:16.835Z,88.29
2022-08-07T07:14:50.511Z,82.63
2022-08-07T07:17:39.515Z,86.30
2022-08-07T07:20:17.501Z,80.71
2022-08-07T07:24:06.331Z,78.61
2022-08-07T07:26:32.620Z,79.24
2022-08-07T07:28:42.473Z,78.78
2022-08-07T07:30:49.277Z,73.13
2022-08-07T07:33:20.902Z,74.40
2022-08-07T07:36:04.450Z,73.05
2022-08-07T07:38:30.580Z,69.68
2022-08-07T07:41:04.079Z,69.47
2022-08-07T07:44:14.231Z,69.09
2022-08-07T07:46:36.989Z,68.23
2022-08-07T07:48:39.879Z,67.13
2022-08-07T07:51:12.745Z,67.48
2022-08-07T07:53:52.543Z,65.23
2022-08-07T07:56:18.499Z,64.51
2022-08-07T07:58:51.188Z,61.73
2022-08-07T08:02:02.743Z,62.79
2022-08-07T08:04:11.127Z,61.69
2022-08-07T08:07:59.790Z,61.26
2022-08-07T08:16:25.880Z,59.01
2022-08-07T08:20:17.445Z,59.83
2022-08-07T08:22:05.481Z,58.27
2022-08-07T08:25:04.866Z,59.63
2022-08-07T08:27:33.597Z,58.66
2022-08-07T08:30:19.471Z,58.47
2022-08-07T08:32:54.944Z,58.34
2022-08-07T08:35:39.102Z,58.50
2022-08-07T08:38:06.680Z,57.67
2022-08-07T08:40:59.092Z,58.99
2022-08-07T08:43:56.118Z,57.56
2022-08-07T08:46:40.113Z,55.40
2022-08-07T08:50:04.793Z,55.95
2022-08-07T08:55:54.608Z,53.67
2022-08-07T09:02:08.704Z,50.10
2022-08-07T09:04:51.458Z,48.93
2022-08-07T09:07:57.780Z,48.64
2022-08-07T09:10:25.342Z,49.36
2022-08-07T09:13:45.977Z,49.23
2022-08-07T09:16:30.129Z,49.01
2022-08-07T09:18:59.034Z,47.56
2022-08-07T09:21:57.821Z,49.51
2022-08-07T09:24:58.879Z,47.73
2022-08-07T09:27:30.329Z,48.68
2022-08-07T09:30:09.005Z,46.08
2022-08-07T09:32:56.527Z,46.39
2022-08-07T09:36:03.370Z,46.11
2022-08-07T09:38:21.098Z,45.30
2022-08-07T09:41:14.552Z,45.13
2022-08-07T09:44:10.222Z,45.70
2022-08-07T09:47:52.127Z,45.24
2022-08-07T09:50:19.310Z,46.29
2022-08-07T09:52:54.060Z,45.42
2022-08-07T09:56:02.875Z,44.30
2022-08-07T09:58:32.587Z,42.50
2022-08-07T10:04:53.427Z,42.40
2022-08-07T10:07:58.129Z,42.91
2022-08-07T10:14:00.166Z,39.57
2022-08-07T10:16:34.894Z,38.44
2022-08-07T10:19:11.284Z,37.38
2022-08-07T10:22:15.368Z,38.41
2022-08-07T10:25:07.006Z,38.61
2022-08-07T10:28:15.377Z,38.56
2022-08-07T10:30:58.526Z,39.54
2022-08-07T10:34:05.601Z,41.02
2022-08-07T10:36:42.775Z,40.97
2022-08-07T10:39:41.837Z,39.61
2022-08-07T10:42:21.036Z,38.64
2022-08-07T10:45:12.818Z,38.81
2022-08-07T10:47:55.858Z,39.90
2022-08-07T10:50:32.352Z,42.45
2022-08-07T10:56:43.700Z,44.34
2022-08-07T11:00:04.177Z,45.18
2022-08-07T11:06:21.809Z,45.20
2022-08-07T11:15:54.375Z,43.61
2022-08-07T11:18:51.023Z,43.60
2022-08-07T11:30:18.179Z,41.45
2022-08-07T11:31:37.288Z,40.37
2022-08-07T11:34:59.209Z,41.00
2022-08-07T11:38:28.181Z,43.13
2022-08-07T11:42:02.092Z,44.07
2022-08-07T11:45:53.068Z,46.55
2022-08-07T11:47:58.845Z,46.88
2022-08-07T11:50:56.384Z,46.90
2022-08-07T11:53:38.114Z,47.52
2022-08-07T11:56:36.890Z,46.97
2022-08-07T12:00:12.089Z,48.00
2022-08-07T12:02:33.715Z,49.00
2022-08-07T12:05:08.989Z,47.16
2022-08-07T12:07:53.660Z,46.17
2022-08-07T12:10:48.431Z,46.02
2022-08-07T12:13:47.760Z,45.63
2022-08-07T12:16:30.709Z,44.33
2022-08-07T12:19:21.250Z,44.18
2022-08-07T12:22:39.009Z,44.31
2022-08-07T12:26:21.817Z,46.17
2022-08-07T12:31:00.698Z,46.83
2022-08-07T12:34:00.846Z,46.12
2022-08-07T12:40:04.143Z,47.05
2022-08-07T12:42:13.642Z,46.51
2022-08-07T12:48:00.269Z,42.93
2022-08-07T12:50:55.613Z,41.63
2022-08-07T12:54:24.449Z,41.13
2022-08-07T12:59:54.625Z,43.16
2022-08-07T13:03:07.057Z,43.60
2022-08-07T13:06:03.087Z,42.17
2022-08-07T13:08:59.654Z,42.08
2022-08-07T13:15:23.641Z,41.67
2022-08-07T13:17:59.456Z,41.70
2022-08-07T13:20:44.563Z,42.69
2022-08-07T13:24:00.635Z,43.59
2022-08-07T13:26:10.566Z,44.08
2022-08-07T13:28:44.582Z,41.38
2022-08-07T13:31:22.307Z,40.86
2022-08-07T13:34:30.086Z,41.11
2022-08-07T13:36:48.597Z,41.08
2022-08-07T13:40:35.354Z,41.04
2022-08-07T13:42:40.031Z,41.67
2022-08-07T13:45:40.640Z,42.00
2022-08-07T13:48:06.149Z,40.96
2022-08-07T13:50:32.842Z,39.82
2022-08-07T13:52:54.029Z,39.52
2022-08-07T13:55:26.264Z,38.02
2022-08-07T13:58:31.352Z,38.05
2022-08-07T14:01:08.815Z,37.27
2022-08-07T14:04:07.329Z,38.56
2022-08-07T14:06:08.645Z,39.14
2022-08-07T14:08:46.153Z,37.76
2022-08-07T14:11:21.603Z,36.62
2022-08-07T14:13:58.151Z,37.43
2022-08-07T14:16:41.394Z,37.13
2022-08-07T14:20:39.922Z,36.88
2022-08-07T14:22:12.551Z,38.01
2022-08-07T14:24:43.005Z,38.56
2022-08-07T14:28:09.881Z,38.69
2022-08-07T14:30:05.288Z,39.16
2022-08-07T14:32:26.893Z,40.66
2022-08-07T14:35:04.434Z,40.92
2022-08-07T14:37:39.236Z,40.36
2022-08-07T14:41:34.177Z,40.30
2022-08-07T14:43:57.699Z,40.65
2022-08-07T14:46:03.978Z,41.50
2022-08-07T14:49:17.318Z,41.10
2022-08-07T14:52:04.679Z,41.53
2022-08-07T14:54:31.630Z,41.80
2022-08-07T14:56:56.724Z,41.91
2022-08-07T15:00:05.215Z,41.67
2022-08-07T15:02:32.119Z,41.54
2022-08-07T15:04:53.199Z,42.27
2022-08-07T15:10:12.115Z,41.62
2022-08-07T15:16:10.872Z,41.11
2022-08-07T15:18:53.122Z,40.55
2022-08-07T15:28:02.068Z,36.50
2022-08-07T15:33:04.134Z,32.61
2022-08-07T15:38:51.711Z,31.19
2022-08-07T15:44:03.948Z,30.36
2022-08-07T15:46:49.992Z,29.74
2022-08-07T15:49:17.615Z,30.86
2022-08-07T15:54:20.687Z,34.05
2022-08-07T15:56:52.366Z,34.62
2022-08-07T15:59:39.762Z,37.10
2022-08-07T16:02:02.248Z,38.55
2022-08-07T16:04:32.245Z,39.28
2022-08-07T16:07:04.778Z,39.00
2022-08-07T16:09:45.672Z,38.64
2022-08-07T16:12:38.946Z,38.11
2022-08-07T16:15:55.578Z,36.48
2022-08-07T16:18:50.206Z,34.67
2022-08-07T16:22:02.303Z,35.99
2022-08-07T16:24:09.254Z,37.64
2022-08-07T16:27:17.931Z,38.39
2022-08-07T16:30:11.592Z,38.91
2022-08-07T16:32:32.988Z,39.51
2022-08-07T16:35:03.660Z,40.60
2022-08-07T16:38:05.811Z,41.43
2022-08-07T16:41:01.602Z,41.73
2022-08-07T16:44:06.046Z,42.67
2022-08-07T16:50:27.291Z,44.60
2022-08-07T16:52:01.582Z,45.42
2022-08-07T16:54:33.033Z,45.78
2022-08-07T16:58:01.063Z,46.49
2022-08-07T17:00:15.125Z,53.43
2022-08-07T17:03:06.074Z,59.71
2022-08-07T17:06:30.245Z,68.05
2022-08-07T17:09:10.448Z,75.16
2022-08-07T17:12:05.170Z,75.89
2022-08-07T17:14:22.245Z,73.09
2022-08-07T17:16:55.644Z,73.16
2022-08-07T17:20:03.497Z,71.34
2022-08-07T17:22:36.626Z,71.70
2022-08-07T17:24:56.496Z,72.10
2022-08-07T17:27:51.078Z,69.36
2022-08-07T17:31:00.769Z,68.89
2022-08-07T17:34:09.428Z,69.01
2022-08-07T17:39:17.139Z,66.23
2022-08-07T17:42:26.064Z,66.62
2022-08-07T17:45:04.754Z,66.67
2022-08-07T17:47:54.181Z,67.35
2022-08-07T17:54:53.620Z,66.04
2022-08-07T17:57:00.232Z,66.50
2022-08-07T17:59:39.664Z,66.61
2022-08-07T18:02:23.596Z,66.94
2022-08-07T18:04:55.544Z,67.45
2022-08-07T18:07:36.230Z,67.85
2022-08-07T18:10:32.754Z,68.59
2022-08-07T18:13:09.883Z,67.69
2022-08-07T18:15:53.525Z,68.01
2022-08-07T18:18:45.130Z,68.55
2022-08-07T18:21:42.131Z,69.04
2022-08-07T18:23:50.789Z,70.66
2022-08-07T18:26:20.975Z,71.68
2022-08-07T18:30:08.246Z,72.33
2022-08-07T18:31:59.402Z,72.33
2022-08-07T18:35:07.975Z,72.03
2022-08-07T18:38:59.262Z,71.51
2022-08-07T18:44:00.252Z,77.68
2022-08-07T18:46:36.911Z,88.14
2022-08-07T18:55:43.136Z,92.63
2022-08-07T19:02:18.092Z,87.83
2022-08-07T19:05:09.819Z,91.13
2022-08-07T19:07:51.973Z,90.55
2022-08-07T19:10:51.835Z,89.04
2022-08-07T19:13:34.047Z,88.06
2022-08-07T19:17:04.781Z,86.24
2022-08-07T19:19:36.773Z,86.26
2022-08-07T19:22:18.626Z,84.47
2022-08-07T19:24:55.988Z,83.42
2022-08-07T19:28:29.492Z,82.46
2022-08-07T19:31:00.841Z,82.31
2022-08-07T19:32:44.575Z,83.83
2022-08-07T19:35:12.175Z,83.34
2022-08-07T19:37:55.123Z,83.31
2022-08-07T19:40:30.769Z,83.28
2022-08-07T19:43:05.770Z,83.57
2022-08-07T19:46:07.874Z,82.05
2022-08-07T19:51:51.163Z,84.21
2022-08-07T19:54:34.266Z,83.81
2022-08-07T19:57:52.348Z,84.87
2022-08-07T19:59:41.169Z,83.83
2022-08-07T20:02:12.357Z,84.73
2022-08-07T20:04:52.046Z,85.07
2022-08-07T20:07:46.015Z,83.98
2022-08-07T20:10:35.745Z,84.39
2022-08-07T20:13:05.904Z,85.41
2022-08-07T20:15:58.449Z,88.25
2022-08-07T20:18:36.857Z,91.07
2022-08-07T20:21:21.103Z,93.36
2022-08-07T20:23:58.015Z,95.44
2022-08-07T20:26:45.141Z,98.82
2022-08-07T20:29:17.074Z,98.42
2022-08-07T20:34:51.362Z,99.68
2022-08-07T20:37:18.762Z,99.49
2022-08-07T20:40:02.634Z,97.66
2022-08-07T20:42:33.738Z,97.67
2022-08-07T20:45:32.197Z,98.95
2022-08-07T20:47:56.852Z,98.91
2022-08-07T20:50:26.847Z,99.85
2022-08-07T20:53:01.721Z,100.00
2022-08-07T20:55:37.150Z,100.00
2022-08-07T21:01:09.077Z,100.00
2022-08-07T21:04:07.199Z,100.00
2022-08-07T21:06:26.046Z,100.00
2022-08-07T21:08:59.442Z,100.00
2022-08-07T21:11:49.986Z,100.00
2022-08-07T21:14:33.643Z,100.00
2022-08-07T21:18:00.385Z,100.00
2022-08-07T21:19:51.483Z,100.00
2022-08-07T21:22:14.801Z,100.00
2022-08-07T21:24:49.635Z,100.00
2022-08-07T21:27:39.803Z,100.00
2022-08-07T21:30:10.931Z,100.00
2022-08-07T21:33:00.607Z,100.00
2022-08-07T21:36:05.718Z,100.00
2022-08-07T21:38:29.000Z,100.00
2022-08-07T21:41:08.196Z,100.00
2022-08-07T21:43:56.332Z,100.00
2022-08-07T21:46:25.278Z,100.00
2022-08-07T21:49:25.747Z,100.00
2022-08-07T21:52:13.632Z,100.00
2022-08-07T21:54:50.043Z,100.00
2022-08-07T21:57:51.828Z,100.00
2022-08-07T22:00:25.703Z,100.00
2022-08-07T22:03:03.620Z,100.00
2022-08-07T22:05:44.210Z,100.00
2022-08-07T22:08:26.693Z,100.00
2022-08-07T22:11:01.910Z,100.00
2022-08-07T22:13:51.283Z,100.00
2022-08-07T22:21:02.530Z,100.00
2022-08-07T22:22:44.747Z,100.00
2022-08-07T22:25:43.087Z,100.00
2022-08-07T22:28:35.252Z,100.00
2022-08-07T22:31:45.263Z,100.00
2022-08-07T22:33:57.133Z,100.00
2022-08-07T22:36:52.714Z,100.00
2022-08-07T22:39:29.460Z,100.00
2022-08-07T22:42:32.766Z,100.00
2022-08-07T22:45:10.949Z,100.00
2022-08-07T22:47:49.280Z,100.00
2022-08-07T22:50:41.820Z,100.00
2022-08-07T22:54:06.276Z,100.00
2022-08-07T22:56:15.846Z,100.00
2022-08-07T22:59:07.682Z,100.00
2022-08-07T23:01:51.478Z,100.00
2022-08-07T23:04:35.496Z,100.00
2022-08-07T23:07:40.326Z,100.00
2022-08-07T23:10:04.785Z,100.00
2022-08-07T23:12:35.669Z,100.00
2022-08-07T23:16:05.857Z,100.00
2022-08-07T23:18:32.362Z,100.00
2022-08-07T23:21:36.782Z,100.00
2022-08-07T23:24:28.116Z,100.00
2022-08-07T23:27:33.668Z,100.00
2022-08-07T23:30:38.748Z,100.00
2022-08-07T23:34:23.416Z,100.00
2022-08-07T23:35:42.550Z,100.00
2022-08-07T23:38:42.440Z,100.00
2022-08-07T23:41:33.494Z,100.00
2022-08-07T23:44:29.747Z,100.00
2022-08-07T23:47:19.955Z,100.00
2022-08-07T23:50:11.931Z,100.00
2022-08-07T23:53:16.613Z,100.00
2022-08-07T23:55:52.464Z,100.00
2022-08-07T23:58:25.466Z,100.00
